Time;durP1;ratioP1;P1;durP2;ratioP2;P2;SDS_P1;SDS_P2;PMS_P1;PMS_P2;Temp;Humidity;BMP_temperature;BMP_pressure;BME280_temperature;BME280_humidity;BME280_pressure;Samples;Min_cycle;Max_cycle;Signal;HPM_P1;HPM_P2
2023/09/25 00:01:16;;;;;;;3.67;2.40;;;;;;;11.97;93.58;102167.94;6312572;22;20036;-79
2023/09/25 00:03:43;;;;;;;4.32;2.10;;;;;;;11.97;93.32;102173.28;6312041;22;20026;-80
2023/09/25 00:06:10;;;;;;;2.33;2.10;;;;;;;11.97;93.44;102167.94;6310443;22;20027;-80
2023/09/25 00:08:37;;;;;;;4.10;1.92;;;;;;;11.98;93.20;102174.78;6311817;22;20027;-80
2023/09/25 00:11:03;;;;;;;2.38;2.17;;;;;;;11.99;92.73;102170.22;6284945;22;20020;-79
2023/09/25 00:13:30;;;;;;;2.50;1.90;;;;;;;11.98;92.59;102169.47;6311738;22;20016;-80
2023/09/25 00:16:00;;;;;;;2.95;1.92;;;;;;;11.98;92.45;102172.13;6312695;22;20011;-80
2023/09/25 00:18:28;;;;;;;2.08;1.98;;;;;;;11.98;92.40;102169.47;6311620;22;20008;-80
2023/09/25 00:20:55;;;;;;;3.08;2.13;;;;;;;11.97;92.32;102159.94;6310192;22;20028;-79
2023/09/25 00:23:22;;;;;;;2.30;2.00;;;;;;;11.99;91.61;102167.53;6310969;22;20126;-79
2023/09/25 00:25:50;;;;;;;2.63;2.20;;;;;;;12.00;91.25;102163.69;6312406;22;20043;-79
2023/09/25 00:28:17;;;;;;;2.33;2.13;;;;;;;12.00;91.21;102161.75;6312200;22;20016;-80
2023/09/25 00:30:44;;;;;;;2.65;2.03;;;;;;;12.02;90.40;102167.44;6312539;22;20012;-80
2023/09/25 00:33:11;;;;;;;4.22;2.25;;;;;;;12.02;90.94;102164.78;6312070;22;20020;-80
2023/09/25 00:35:41;;;;;;;2.30;2.10;;;;;;;12.00;90.64;102169.75;6310323;22;20020;-80
2023/09/25 00:38:07;;;;;;;3.55;2.10;;;;;;;11.99;90.41;102165.63;6311571;22;20449;-80
2023/09/25 00:40:36;;;;;;;2.33;2.17;;;;;;;11.96;90.88;102174.47;6312169;22;20012;-80
2023/09/25 00:43:04;;;;;;;4.35;2.20;;;;;;;11.95;90.38;102175.63;6312378;22;20454;-80
2023/09/25 00:45:31;;;;;;;5.25;2.20;;;;;;;11.95;90.64;102178.28;6310117;22;20062;-80
2023/09/25 00:47:58;;;;;;;3.63;2.53;;;;;;;11.92;90.66;102181.78;6310722;22;20038;-79
2023/09/25 00:50:29;;;;;;;4.93;2.33;;;;;;;11.90;90.33;102176.09;6311694;22;20012;-79
2023/09/25 00:53:06;;;;;;;2.05;1.95;;;;;;;11.90;90.51;102176.09;6310021;22;20079;-79
2023/09/25 00:55:34;;;;;;;3.05;2.00;;;;;;;11.87;90.66;102176.19;6310470;22;20015;-79
2023/09/25 00:58:01;;;;;;;2.47;2.20;;;;;;;11.84;90.39;102174.34;6310518;22;20020;-80
2023/09/25 01:00:28;;;;;;;2.60;2.40;;;;;;;11.80;90.59;102176.31;6311463;22;20043;-79
2023/09/25 01:02:55;;;;;;;2.50;2.30;;;;;;;11.77;90.69;102182.47;6312260;22;20407;-80
2023/09/25 01:05:22;;;;;;;2.30;2.20;;;;;;;11.75;91.00;102174.09;6309405;22;20015;-79
2023/09/25 01:07:49;;;;;;;3.70;2.40;;;;;;;11.72;91.23;102172.25;6310102;22;20103;-79
2023/09/25 01:10:17;;;;;;;2.33;2.13;;;;;;;11.67;91.70;102182.25;6311639;22;20079;-79
2023/09/25 01:12:45;;;;;;;2.40;2.20;;;;;;;11.65;91.42;102173.91;6312191;22;20039;-79
2023/09/25 01:15:15;;;;;;;3.55;2.22;;;;;;;11.62;91.20;102179.31;6311905;22;20015;-79
2023/09/25 01:17:43;;;;;;;2.60;2.40;;;;;;;11.56;90.96;102181.72;6311629;22;20074;-78
2023/09/25 01:20:14;;;;;;;2.60;2.40;;;;;;;11.53;91.83;102179.13;6312086;22;20012;-78
2023/09/25 01:22:42;;;;;;;2.47;2.28;;;;;;;11.50;91.38;102177.28;6309554;22;20026;-79
2023/09/25 01:25:12;;;;;;;2.38;2.17;;;;;;;11.48;91.43;102172.34;6310329;22;20020;-78
2023/09/25 01:27:43;;;;;;;2.05;1.85;;;;;;;11.46;92.56;102174.69;6312019;22;20098;-79
2023/09/25 01:30:13;;;;;;;2.53;2.20;;;;;;;11.45;92.21;102170.50;6310429;22;20073;-79
2023/09/25 01:32:43;;;;;;;2.72;2.53;;;;;;;11.42;92.35;102171.31;6310134;22;20653;-78
2023/09/25 01:35:23;;;;;;;4.05;2.40;;;;;;;11.41;92.03;102166.41;6311791;22;20019;-79
2023/09/25 01:37:54;;;;;;;2.80;2.40;;;;;;;11.37;92.15;102169.13;6312522;22;20012;-80
2023/09/25 01:40:21;;;;;;;2.27;2.07;;;;;;;11.38;92.39;102167.22;6311514;22;20090;-79
2023/09/25 01:42:47;;;;;;;6.60;2.70;;;;;;;11.35;91.88;102161.53;6310537;22;20255;-79
2023/09/25 01:45:16;;;;;;;2.20;2.00;;;;;;;11.33;92.38;102155.88;6312181;22;20090;-79
2023/09/25 01:47:50;;;;;;;3.58;2.47;;;;;;;11.34;92.57;102159.28;6312094;22;20540;-79
2023/09/25 01:50:19;;;;;;;2.60;2.40;;;;;;;11.34;91.82;102149.38;6310122;22;20020;-79
2023/09/25 01:52:50;;;;;;;2.22;2.13;;;;;;;11.33;91.40;102153.19;6310024;22;20457;-79
2023/09/25 01:55:17;;;;;;;7.43;2.47;;;;;;;11.31;91.82;102150.19;6311999;22;20019;-79
2023/09/25 01:57:43;;;;;;;2.42;2.22;;;;;;;11.31;91.63;102149.44;6310253;22;20015;-79
2023/09/25 02:00:10;;;;;;;2.17;2.08;;;;;;;11.30;91.09;102147.94;6309911;22;20020;-78
2023/09/25 02:02:40;;;;;;;2.47;2.10;;;;;;;11.29;91.40;102149.84;6310063;22;20074;-79
2023/09/25 02:05:08;;;;;;;3.47;2.03;;;;;;;11.26;91.86;102149.91;6310393;22;20066;-78
2023/09/25 02:07:36;;;;;;;2.15;2.03;;;;;;;11.23;91.22;102148.06;6309930;22;20437;-79
2023/09/25 02:10:03;;;;;;;3.58;2.30;;;;;;;11.23;91.08;102151.47;6312057;22;20035;-79
2023/09/25 02:12:29;;;;;;;4.10;2.00;;;;;;;11.24;91.21;102141.56;6309219;22;20098;-79
2023/09/25 02:15:03;;;;;;;3.92;2.22;;;;;;;11.22;90.80;102149.97;6310272;22;20449;-79
2023/09/25 02:17:29;;;;;;;2.22;2.03;;;;;;;11.22;91.14;102149.97;6309581;22;20023;-79
2023/09/25 02:20:08;;;;;;;2.90;2.22;;;;;;;11.20;91.03;102152.28;6309709;22;20453;-79
2023/09/25 02:22:35;;;;;;;2.45;2.08;;;;;;;11.20;90.83;102138.97;6311457;22;20473;-79
2023/09/25 02:25:01;;;;;;;2.15;2.05;;;;;;;11.19;90.51;102142.06;6310061;22;20043;-79
2023/09/25 02:27:28;;;;;;;6.00;2.00;;;;;;;11.17;90.23;102131.81;6309358;22;20154;-79
2023/09/25 02:29:54;;;;;;;3.65;2.30;;;;;;;11.16;90.80;102130.31;6310304;22;20349;-79
2023/09/25 02:32:21;;;;;;;1.77;1.67;;;;;;;11.16;90.46;102132.22;6311285;22;20093;-80
2023/09/25 02:34:48;;;;;;;2.30;2.13;;;;;;;11.16;90.14;102127.66;6309621;22;20020;-80
2023/09/25 02:37:15;;;;;;;2.65;2.40;;;;;;;11.20;89.79;102132.88;6311424;22;20016;-79
2023/09/25 02:39:42;;;;;;;2.28;2.15;;;;;;;11.19;89.75;102126.09;6309613;22;20042;-79
2023/09/25 02:42:09;;;;;;;2.42;2.22;;;;;;;11.18;90.47;102121.91;6311550;22;20027;-79
2023/09/25 02:44:36;;;;;;;3.25;2.28;;;;;;;11.17;89.76;102123.06;6311412;22;20015;-81
2023/09/25 02:47:03;;;;;;;2.53;2.28;;;;;;;11.18;89.57;102125.31;6310165;22;20042;-79
2023/09/25 02:49:30;;;;;;;2.00;1.90;;;;;;;11.20;89.20;102122.97;6310542;22;20011;-80
2023/09/25 02:51:56;;;;;;;2.47;2.25;;;;;;;11.20;89.28;102132.88;6311718;22;20016;-80
2023/09/25 02:54:23;;;;;;;3.03;2.10;;;;;;;11.19;89.26;102126.09;6309159;22;20026;-80
2023/09/25 02:56:50;;;;;;;3.10;2.33;;;;;;;11.15;89.83;102128.81;6310193;22;20015;-81
2023/09/25 02:59:16;;;;;;;2.53;2.33;;;;;;;11.13;90.61;102125.06;6311524;22;20016;-80
2023/09/25 03:01:43;;;;;;;2.40;2.20;;;;;;;11.11;89.04;102130.78;6309841;22;20016;-81
2023/09/25 03:04:10;;;;;;;2.42;2.00;;;;;;;11.12;89.48;102131.53;6310873;22;20438;-81
2023/09/25 03:06:37;;;;;;;4.28;2.30;;;;;;;11.10;88.92;102129.28;6311157;22;20134;-80
2023/09/25 03:09:04;;;;;;;4.50;2.47;;;;;;;11.11;88.77;102128.13;6309644;22;20087;-80
2023/09/25 03:11:32;;;;;;;2.33;2.22;;;;;;;11.12;89.18;102136.88;6310955;22;20016;-80
2023/09/25 03:13:58;;;;;;;3.95;2.50;;;;;;;11.12;89.20;102132.28;6311812;22;20518;-80
2023/09/25 03:16:25;;;;;;;7.28;2.40;;;;;;;11.16;89.17;102129.56;6308758;22;20237;-80
2023/09/25 03:18:51;;;;;;;2.75;2.50;;;;;;;11.15;88.84;102130.72;6311038;22;20012;-81
2023/09/25 03:21:18;;;;;;;3.88;2.00;;;;;;;11.14;88.79;102129.22;6310781;22;20054;-80
2023/09/25 03:23:45;;;;;;;5.22;2.70;;;;;;;11.13;88.69;102125.81;6311534;22;20022;-80
2023/09/25 03:26:14;;;;;;;3.83;1.90;;;;;;;11.13;88.55;102125.06;6309346;22;20020;-80
2023/09/25 03:28:42;;;;;;;2.70;2.33;;;;;;;11.11;88.05;102127.38;6309078;22;20456;-80
2023/09/25 03:31:09;;;;;;;2.65;2.40;;;;;;;11.14;88.32;102129.97;6309770;22;20377;-80
2023/09/25 03:33:37;;;;;;;3.08;2.58;;;;;;;11.17;87.61;102125.72;6311404;22;20512;-80
2023/09/25 03:36:04;;;;;;;2.30;2.20;;;;;;;11.19;87.22;102126.09;6309452;22;20038;-80
2023/09/25 03:38:31;;;;;;;3.97;2.25;;;;;;;11.20;86.97;102125.63;6310579;22;20070;-80
2023/09/25 03:40:58;;;;;;;2.63;2.00;;;;;;;11.20;87.32;102120.31;6283678;22;20023;-80
2023/09/25 03:43:24;;;;;;;3.05;2.25;;;;;;;11.21;87.09;102129.06;6308760;22;20054;-80
2023/09/25 03:45:51;;;;;;;2.33;2.22;;;;;;;11.21;86.90;102126.41;6309614;22;20488;-80
2023/09/25 03:48:20;;;;;;;2.63;2.05;;;;;;;11.22;86.54;102131.31;6276880;22;20024;-80
2023/09/25 03:50:47;;;;;;;2.30;2.20;;;;;;;11.23;86.70;102122.16;6280160;22;20027;-81
2023/09/25 03:53:14;;;;;;;2.42;2.33;;;;;;;11.24;86.87;102129.00;6277990;22;20078;-80
2023/09/25 03:55:41;;;;;;;2.40;2.00;;;;;;;11.26;86.38;102129.34;6277890;22;20013;-80
2023/09/25 03:58:07;;;;;;;3.78;2.10;;;;;;;11.26;86.43;102124.00;6277646;22;20020;-80
2023/09/25 04:00:34;;;;;;;2.40;2.13;;;;;;;11.26;86.25;102120.59;6279195;22;20076;-81
2023/09/25 04:03:00;;;;;;;4.53;2.30;;;;;;;11.27;85.83;102125.50;6279853;22;20016;-80
2023/09/25 04:05:27;;;;;;;3.15;2.60;;;;;;;11.29;85.93;102125.09;6277659;22;20366;-80
2023/09/25 04:07:54;;;;;;;4.05;2.00;;;;;;;11.28;86.17;102123.59;6279685;22;20379;-80
2023/09/25 04:10:21;;;;;;;2.60;2.40;;;;;;;11.26;86.38;102124.00;6279200;22;20020;-80
2023/09/25 04:12:48;;;;;;;2.33;2.17;;;;;;;11.25;86.13;102116.41;6279845;22;20473;-80
2023/09/25 04:15:16;;;;;;;2.63;2.42;;;;;;;11.23;86.06;102124.06;6279117;22;20413;-81
2023/09/25 04:17:43;;;;;;;2.83;2.35;;;;;;;11.27;85.76;102111.44;6277706;22;20438;-78
2023/09/25 04:20:24;;;;;;;3.70;2.00;;;;;;;11.26;86.36;102124.00;6279313;22;20433;-80
2023/09/25 04:22:52;;;;;;;2.22;2.13;;;;;;;11.26;85.75;102126.69;6277997;22;20012;-80
2023/09/25 04:25:19;;;;;;;3.10;2.20;;;;;;;11.27;85.53;102125.50;6279161;22;20044;-81
2023/09/25 04:27:52;;;;;;;2.63;2.25;;;;;;;11.32;85.33;102124.28;6280396;22;20016;-80
2023/09/25 04:30:20;;;;;;;2.50;2.30;;;;;;;11.33;85.42;102123.88;6280001;22;20016;-78
2023/09/25 04:32:49;;;;;;;3.90;2.60;;;;;;;11.34;85.51;102135.28;6281677;22;20016;-79
2023/09/25 04:35:17;;;;;;;2.45;2.25;;;;;;;11.34;84.86;102132.63;6281262;22;20012;-79
2023/09/25 04:37:45;;;;;;;2.65;2.00;;;;;;;11.36;85.11;102135.63;6281149;22;20016;-79
2023/09/25 04:40:23;;;;;;;2.60;2.40;;;;;;;11.37;85.16;102137.13;6280774;22;20115;-79
2023/09/25 04:42:51;;;;;;;2.58;2.38;;;;;;;11.38;84.70;102135.22;6281785;22;20476;-79
2023/09/25 04:45:20;;;;;;;3.92;2.20;;;;;;;11.36;85.37;102141.72;6281072;22;20262;-81
2023/09/25 04:47:48;;;;;;;2.90;2.70;;;;;;;11.34;85.11;102145.97;6281502;22;20027;-81
2023/09/25 04:50:15;;;;;;;2.63;2.42;;;;;;;11.35;84.92;102144.78;6279413;22;20482;-78
2023/09/25 04:52:42;;;;;;;4.68;2.17;;;;;;;11.35;84.60;102148.22;6280862;22;20023;-81
2023/09/25 04:55:13;;;;;;;4.68;2.33;;;;;;;11.35;85.01;102152.78;6280858;22;20318;-83
2023/09/25 04:57:40;;;;;;;2.70;2.33;;;;;;;11.34;84.49;102152.03;6280673;22;20461;-78
2023/09/25 05:00:14;;;;;;;3.28;2.60;;;;;;;11.36;84.71;102154.28;6280139;22;20016;-76
2023/09/25 05:02:44;;;;;;;2.78;2.17;;;;;;;11.37;84.92;102153.13;6279491;22;20095;-77
2023/09/25 05:05:15;;;;;;;2.22;2.10;;;;;;;11.37;84.56;102158.47;6280958;22;20460;-77
2023/09/25 05:07:43;;;;;;;3.03;2.83;;;;;;;11.38;84.72;102153.88;6280969;22;20096;-78
2023/09/25 05:10:11;;;;;;;2.65;1.98;;;;;;;11.36;85.10;102154.28;6280858;22;20020;-76
2023/09/25 05:12:39;;;;;;;3.05;2.45;;;;;;;11.36;84.92;102156.97;6280477;22;20019;-78
2023/09/25 05:15:07;;;;;;;3.80;2.55;;;;;;;11.37;84.95;102163.81;6280265;22;20052;-78
2023/09/25 05:17:38;;;;;;;2.28;2.10;;;;;;;11.36;85.14;102165.72;6278897;22;20020;-78
2023/09/25 05:20:15;;;;;;;2.45;2.35;;;;;;;11.35;85.16;102155.47;6280709;22;20548;-80
2023/09/25 05:22:49;;;;;;;2.47;2.28;;;;;;;11.34;84.81;102157.38;6280751;22;20017;-78
2023/09/25 05:25:17;;;;;;;3.28;2.47;;;;;;;11.34;84.87;102164.63;6278889;22;20476;-78
2023/09/25 05:27:51;;;;;;;4.68;2.50;;;;;;;11.34;85.41;102167.28;6277743;22;20089;-77
2023/09/25 05:30:19;;;;;;;4.03;2.53;;;;;;;11.30;85.24;102163.94;6280097;22;20023;-78
2023/09/25 05:32:50;;;;;;;3.35;2.40;;;;;;;11.30;85.88;102159.34;6279357;22;20016;-78
2023/09/25 05:35:18;;;;;;;3.47;2.20;;;;;;;11.31;85.04;102162.78;6278769;22;20032;-81
2023/09/25 05:37:45;;;;;;;7.57;2.20;;;;;;;11.34;85.35;102172.63;6279404;22;20394;-78
2023/09/25 05:40:13;;;;;;;3.35;2.50;;;;;;;11.34;84.95;102170.69;6278019;22;20021;-78
2023/09/25 05:42:44;;;;;;;3.03;2.67;;;;;;;11.35;85.37;102174.13;6278497;22;20008;-78
2023/09/25 05:45:12;;;;;;;2.47;2.33;;;;;;;11.35;85.82;102182.88;6279156;22;20525;-78
2023/09/25 05:47:39;;;;;;;4.70;2.53;;;;;;;11.35;85.17;102179.44;6280295;22;20055;-80
2023/09/25 05:50:07;;;;;;;2.67;2.47;;;;;;;11.36;85.76;102176.38;6278731;22;20020;-78
2023/09/25 05:52:35;;;;;;;3.45;2.42;;;;;;;11.37;85.72;102174.47;6280555;22;20012;-77
2023/09/25 05:55:04;;;;;;;2.60;2.40;;;;;;;11.40;85.56;102186.22;6281443;22;20012;-82
2023/09/25 05:57:31;;;;;;;2.08;1.98;;;;;;;11.41;86.08;102190.41;6280200;22;20020;-81
2023/09/25 05:59:59;;;;;;;3.05;2.60;;;;;;;11.41;85.29;102185.81;6280937;22;20414;-81
2023/09/25 06:02:27;;;;;;;4.53;2.83;;;;;;;11.45;85.74;102185.75;6280047;22;20016;-81
2023/09/25 06:05:01;;;;;;;2.42;2.25;;;;;;;11.46;85.33;102188.00;6281197;22;20401;-81
2023/09/25 06:07:28;;;;;;;3.42;2.38;;;;;;;11.48;85.14;102182.28;6279933;22;20023;-81
2023/09/25 06:09:55;;;;;;;3.38;2.42;;;;;;;11.54;85.52;102184.06;6279571;22;20496;-79
2023/09/25 06:12:21;;;;;;;2.45;2.30;;;;;;;11.56;85.36;102181.72;6279425;22;20031;-78
2023/09/25 06:14:49;;;;;;;2.83;2.45;;;;;;;11.60;84.60;102181.63;6280735;22;20434;-79
2023/09/25 06:17:16;;;;;;;2.72;2.50;;;;;;;11.64;84.42;102190.31;6280615;22;20018;-91
2023/09/25 06:19:42;;;;;;;2.80;2.60;;;;;;;11.68;84.93;102191.00;6278997;22;20092;-81
2023/09/25 06:22:09;;;;;;;2.30;2.20;;;;;;;11.72;84.78;102190.94;6281310;22;20024;-81
2023/09/25 06:24:35;;;;;;;4.45;2.90;;;;;;;11.75;84.47;102196.19;6282288;22;20413;-78
2023/09/25 06:27:02;;;;;;;3.08;2.70;;;;;;;11.80;84.95;102190.41;6279946;22;20047;-79
2023/09/25 06:29:28;;;;;;;3.13;2.90;;;;;;;11.85;84.30;102195.25;6279909;22;20055;-79
2023/09/25 06:31:56;;;;;;;8.88;2.70;;;;;;;11.95;84.25;102191.63;6280534;22;20558;-79
2023/09/25 06:34:27;;;;;;;2.90;2.67;;;;;;;12.15;82.92;102191.56;6279816;22;20525;-80
2023/09/25 06:36:55;;;;;;;5.35;2.75;;;;;;;12.25;82.07;102192.50;6280526;22;20032;-79
2023/09/25 06:39:23;;;;;;;3.00;2.70;;;;;;;12.27;81.84;102196.28;6277967;22;20052;-78
2023/09/25 06:41:50;;;;;;;3.80;2.72;;;;;;;12.27;82.52;102193.59;6280185;22;20386;-78
2023/09/25 06:44:21;;;;;;;4.95;2.88;;;;;;;12.27;82.05;102193.59;6280002;22;20455;-79
2023/09/25 06:46:47;;;;;;;4.00;2.47;;;;;;;12.29;82.09;102190.50;6280726;22;20019;-81
2023/09/25 06:49:15;;;;;;;3.92;2.53;;;;;;;12.32;82.49;102197.69;6278704;22;20008;-82
2023/09/25 06:51:42;;;;;;;2.88;2.55;;;;;;;12.34;81.55;102195.38;6253033;22;20020;-83
2023/09/25 06:54:09;;;;;;;2.97;2.78;;;;;;;12.38;81.75;102195.28;6280152;22;20087;-82
2023/09/25 06:56:36;;;;;;;5.78;3.63;;;;;;;12.42;81.78;102198.59;6279575;22;20350;-81
2023/09/25 06:59:03;;;;;;;3.17;2.88;;;;;;;12.45;82.25;102195.84;6280664;22;20020;-84
2023/09/25 07:01:30;;;;;;;4.22;3.00;;;;;;;12.49;81.59;102199.19;6280171;22;20504;-82
2023/09/25 07:03:57;;;;;;;3.25;2.90;;;;;;;12.54;81.58;102192.59;6278651;22;20024;-80
2023/09/25 07:06:23;;;;;;;2.90;2.70;;;;;;;12.58;81.53;102191.34;6279628;22;20066;-80
2023/09/25 07:08:50;;;;;;;2.70;2.50;;;;;;;12.64;81.21;102191.59;6280394;22;20417;-79
2023/09/25 07:11:18;;;;;;;4.22;2.50;;;;;;;12.67;81.49;102190.78;6277989;22;20023;-80
2023/09/25 07:13:45;;;;;;;3.00;2.80;;;;;;;12.72;80.97;102192.94;6279706;22;20023;-81
2023/09/25 07:16:11;;;;;;;5.32;3.08;;;;;;;12.76;81.77;102188.28;6279929;22;20008;-79
2023/09/25 07:18:38;;;;;;;3.15;2.65;;;;;;;12.80;80.69;102188.91;6279950;22;20027;-79
2023/09/25 07:21:06;;;;;;;3.30;3.00;;;;;;;12.87;80.08;102187.97;6279831;22;20016;-83
2023/09/25 07:23:32;;;;;;;6.00;3.22;;;;;;;12.92;80.66;102188.22;6279397;22;20515;-83
2023/09/25 07:26:04;;;;;;;6.28;3.10;;;;;;;12.98;80.57;102193.81;6280790;22;20078;-83
2023/09/25 07:28:31;;;;;;;4.78;2.88;;;;;;;13.05;80.44;102185.63;6280362;22;20090;-82
2023/09/25 07:31:00;;;;;;;3.13;2.92;;;;;;;13.12;80.07;102198.81;6281102;22;20013;-83
2023/09/25 07:33:31;;;;;;;3.10;2.90;;;;;;;13.24;80.31;102194.69;6280123;22;20091;-83
2023/09/25 07:35:59;;;;;;;2.87;2.70;;;;;;;13.34;79.79;102194.41;6280490;22;20020;-85
2023/09/25 07:38:29;;;;;;;3.10;2.90;;;;;;;13.50;79.69;102190.94;6279056;22;20403;-83
2023/09/25 07:40:57;;;;;;;3.25;3.03;;;;;;;13.67;79.75;102192.38;6280942;22;20460;-82
2023/09/25 07:43:29;;;;;;;5.07;3.05;;;;;;;13.87;78.34;102196.78;6279717;22;20013;-83
2023/09/25 07:46:18;;;;;;;3.13;2.90;;;;;;;13.96;76.83;102197.66;6279781;22;20106;-84
2023/09/25 07:48:45;;;;;;;3.50;2.92;;;;;;;14.02;76.74;102192.50;6280852;22;20382;-88
2023/09/25 07:51:13;;;;;;;3.50;3.20;;;;;;;14.12;76.89;102196.03;6280948;22;20020;-88
2023/09/25 07:53:39;;;;;;;4.00;3.58;;;;;;;14.24;75.56;102197.97;6281990;22;20059;-91
2023/09/25 07:56:06;;;;;;;4.60;3.08;;;;;;;14.31;76.15;102190.47;6281682;22;20012;-88
2023/09/25 07:58:38;;;;;;;4.00;3.70;;;;;;;14.40;76.30;102189.06;6280254;22;20335;-87
2023/09/25 08:01:08;;;;;;;;;;;;;;;14.51;77.46;102192.19;6289682;22;20000;-89
2023/09/25 08:03:35;;;;;;;8.48;3.42;;;;;;;14.57;75.35;102183.19;6299361;22;19919;-91
2023/09/25 08:06:05;;;;;;;3.83;3.10;;;;;;;14.74;75.62;102185.72;6286826;22;20040;-92
2023/09/25 08:08:34;;;;;;;7.93;2.95;;;;;;;14.97;75.96;102188.75;6282878;22;20072;-87
2023/09/25 08:11:01;;;;;;;3.35;3.03;;;;;;;15.13;73.69;102182.47;6284140;22;20070;-93
2023/09/25 08:13:29;;;;;;;3.60;3.20;;;;;;;15.23;73.15;102183.28;6284463;22;20012;-93
2023/09/25 08:16:03;;;;;;;3.25;2.85;;;;;;;15.34;72.75;102191.69;6283389;22;20068;-91
2023/09/25 08:18:30;;;;;;;5.55;3.10;;;;;;;15.40;72.21;102187.28;6282347;22;20124;-89
2023/09/25 08:20:57;;;;;;;3.20;3.00;;;;;;;15.47;72.29;102187.03;6285594;22;20756;-93
2023/09/25 08:23:23;;;;;;;5.40;2.78;;;;;;;15.54;71.83;102189.44;6282417;22;20012;-93
2023/09/25 08:25:50;;;;;;;6.63;2.90;;;;;;;15.63;72.39;102189.50;6286614;22;20039;-87
2023/09/25 08:28:16;;;;;;;5.30;3.20;;;;;;;15.66;71.30;102185.94;6294768;22;20031;-85
2023/09/25 08:30:43;;;;;;;3.13;2.88;;;;;;;15.72;71.56;102180.00;6290941;22;20113;-88
2023/09/25 08:33:11;;;;;;;3.97;3.00;;;;;;;15.73;71.33;102179.56;6282862;22;20020;-86
2023/09/25 08:35:41;;;;;;;3.30;2.88;;;;;;;15.76;70.78;102173.31;6281079;22;20044;-80
2023/09/25 08:38:08;;;;;;;3.10;2.85;;;;;;;15.84;71.59;102173.81;6280176;22;20016;-80
2023/09/25 08:40:38;;;;;;;3.88;2.78;;;;;;;15.90;71.63;102180.13;6280897;22;20016;-77
2023/09/25 08:43:06;;;;;;;2.90;2.53;;;;;;;15.94;70.46;102180.72;6281270;22;20047;-78
2023/09/25 08:45:52;;;;;;;4.13;2.70;;;;;;;15.99;70.69;102185.53;6282868;22;20043;-76
2023/09/25 08:48:19;;;;;;;5.10;3.00;;;;;;;16.08;70.07;102172.09;6280613;22;20030;-79
2023/09/25 08:50:47;;;;;;;3.28;2.75;;;;;;;16.13;70.74;102182.28;6280591;22;20016;-78
2023/09/25 08:53:14;;;;;;;2.92;2.60;;;;;;;16.20;70.25;102182.00;6280804;22;20439;-79
2023/09/25 08:55:42;;;;;;;6.90;2.90;;;;;;;16.26;70.34;102176.78;6280755;22;20063;-79
2023/09/25 08:58:10;;;;;;;3.83;2.38;;;;;;;16.33;69.55;102177.28;6280812;22;20016;-79
2023/09/25 09:00:40;;;;;;;3.40;2.63;;;;;;;16.47;70.56;102167.13;6280692;22;20017;-78
2023/09/25 09:03:06;;;;;;;3.83;2.53;;;;;;;16.66;69.12;102174.06;6280781;22;20016;-80
2023/09/25 09:05:33;;;;;;;3.10;2.53;;;;;;;16.79;68.52;102176.63;6279998;22;20494;-79
2023/09/25 09:08:05;;;;;;;3.88;2.83;;;;;;;16.88;69.27;102187.34;6281055;22;20435;-79
2023/09/25 09:10:42;;;;;;;4.50;2.88;;;;;;;16.91;69.47;102189.16;6280552;22;20016;-78
2023/09/25 09:13:10;;;;;;;4.18;2.78;;;;;;;16.98;68.92;102192.28;6280888;22;20012;-84
2023/09/25 09:15:39;;;;;;;4.45;2.67;;;;;;;17.12;68.81;102190.19;6280091;22;20017;-83
2023/09/25 09:18:25;;;;;;;3.85;2.83;;;;;;;17.23;67.40;102188.53;6282344;22;20016;-85
2023/09/25 09:20:54;;;;;;;2.60;2.40;;;;;;;17.26;67.04;102192.25;6281202;22;20464;-84
2023/09/25 09:23:38;;;;;;;2.65;2.45;;;;;;;17.29;66.74;102186.72;6281101;22;20335;-87
2023/09/25 09:26:05;;;;;;;2.97;2.33;;;;;;;17.26;66.76;102195.69;6281540;22;20012;-86
2023/09/25 09:28:32;;;;;;;4.57;2.72;;;;;;;17.21;66.97;102200.94;6280781;22;20024;-86
2023/09/25 09:31:00;;;;;;;3.05;2.63;;;;;;;17.27;67.00;102199.88;6281004;22;20021;-88
2023/09/25 09:33:29;;;;;;;7.53;2.67;;;;;;;17.39;66.73;102200.19;6278868;22;20019;-87
2023/09/25 09:35:56;;;;;;;2.92;2.63;;;;;;;17.46;66.53;102205.25;6281082;22;20442;-85
2023/09/25 09:38:24;;;;;;;6.55;2.60;;;;;;;17.48;66.00;102214.38;6280548;22;20013;-87
2023/09/25 09:40:51;;;;;;;3.08;2.25;;;;;;;17.51;67.14;102212.72;6282767;22;20016;-85
2023/09/25 09:43:18;;;;;;;4.10;2.65;;;;;;;17.66;67.95;102206.25;6282050;22;20071;-86
2023/09/25 09:45:47;;;;;;;3.15;2.38;;;;;;;17.84;66.48;102210.09;6281503;22;20012;-87
2023/09/25 09:48:19;;;;;;;3.28;2.40;;;;;;;17.97;65.23;102210.66;6281029;22;20142;-81
2023/09/25 09:50:52;;;;;;;2.58;2.38;;;;;;;18.00;65.48;102213.16;6280055;22;20473;-80
2023/09/25 09:53:18;;;;;;;3.35;2.50;;;;;;;17.96;65.27;102215.31;6279862;22;20022;-79
2023/09/25 09:55:45;;;;;;;4.05;2.20;;;;;;;18.03;65.39;102210.78;6280525;22;20489;-79
2023/09/25 09:58:13;;;;;;;2.97;2.28;;;;;;;18.07;65.46;102214.03;6280300;22;20022;-79
2023/09/25 10:00:40;;;;;;;5.78;2.28;;;;;;;18.06;64.88;102212.56;6279985;22;20043;-78
2023/09/25 10:03:08;;;;;;;2.90;2.20;;;;;;;18.08;65.12;102208.22;6279931;22;20043;-77
2023/09/25 10:06:05;;;;;;;3.63;2.35;;;;;;;18.17;65.71;102215.50;6280256;22;20017;-79
2023/09/25 10:08:31;;;;;;;2.85;2.25;;;;;;;18.19;65.49;102213.84;6260443;22;20052;-79
2023/09/25 10:11:15;;;;;;;8.90;2.40;;;;;;;18.31;66.29;102215.59;6280546;22;20019;-79
2023/09/25 10:13:42;;;;;;;2.47;2.25;;;;;;;18.46;64.87;102210.25;6280441;22;20188;-81
2023/09/25 10:16:10;;;;;;;3.33;1.98;;;;;;;18.52;65.77;102196.88;6280284;22;20016;-80
2023/09/25 10:18:36;;;;;;;2.20;2.00;;;;;;;18.53;65.29;102191.03;6279580;22;20043;-78
2023/09/25 10:21:11;;;;;;;3.88;2.05;;;;;;;18.60;63.75;102189.97;6279811;22;20044;-77
2023/09/25 10:23:40;;;;;;;3.78;2.00;;;;;;;18.51;63.68;102190.75;6280249;22;20016;-77
2023/09/25 10:26:22;;;;;;;2.28;1.85;;;;;;;18.59;64.13;102204.63;6279558;22;20078;-76
2023/09/25 10:28:58;;;;;;;3.67;2.15;;;;;;;18.66;63.50;102198.91;6280437;22;20075;-76
2023/09/25 10:31:29;;;;;;;4.32;2.13;;;;;;;18.74;64.86;102199.31;6279845;22;20016;-76
2023/09/25 10:33:59;;;;;;;2.15;1.95;;;;;;;18.87;63.29;102197.84;6278658;22;20507;-84
2023/09/25 10:36:50;;;;;;;;;;;;;;;18.97;64.86;102196.56;6278447;22;20017;-83
2023/09/25 10:39:17;;;;;;;2.42;2.10;;;;;;;18.99;62.36;102196.13;6280358;22;19923;-83
2023/09/25 10:41:55;;;;;;;2.75;1.90;;;;;;;18.88;63.78;102201.28;6280670;22;20461;-90
2023/09/25 10:44:23;;;;;;;4.43;2.10;;;;;;;19.04;64.67;102200.88;6280040;22;20016;-85
2023/09/25 10:46:50;;;;;;;5.43;2.05;;;;;;;19.05;61.75;102205.06;6280434;22;20513;-88
2023/09/25 10:49:16;;;;;;;8.57;2.13;;;;;;;19.06;61.48;102220.03;6280322;22;20024;-81
2023/09/25 10:51:43;;;;;;;2.25;2.05;;;;;;;19.12;61.67;102217.44;6280480;22;20087;-85
2023/09/25 10:54:09;;;;;;;4.03;2.20;;;;;;;19.10;61.09;102217.16;6280238;22;20016;-84
2023/09/25 10:56:36;;;;;;;2.28;1.75;;;;;;;19.14;62.99;102209.63;6278208;22;20016;-83
2023/09/25 10:59:04;;;;;;;4.10;2.17;;;;;;;19.22;62.97;102218.84;6280306;22;20020;-82
2023/09/25 11:01:31;;;;;;;2.65;2.20;;;;;;;19.31;62.55;102224.91;6278680;22;20016;-85
2023/09/25 11:03:59;;;;;;;1.92;1.73;;;;;;;19.27;61.27;102216.25;6280831;22;20012;-85
2023/09/25 11:06:28;;;;;;;2.00;1.90;;;;;;;19.36;62.26;102226.22;6279505;22;20016;-84
2023/09/25 11:09:18;;;;;;;2.28;2.08;;;;;;;19.36;61.22;102231.63;6280525;22;20064;-84
2023/09/25 11:11:46;;;;;;;2.13;1.92;;;;;;;19.37;60.61;102229.66;6268571;22;20016;-85
2023/09/25 11:14:13;;;;;;;3.28;2.03;;;;;;;19.42;62.66;102220.91;6280008;22;20430;-83
2023/09/25 11:16:40;;;;;;;3.58;2.28;;;;;;;19.43;61.62;102223.16;6279374;22;20104;-84
2023/09/25 11:19:15;;;;;;;7.30;2.13;;;;;;;19.44;60.61;102213.84;6280402;22;20020;-83
2023/09/25 11:21:46;;;;;;;2.50;2.30;;;;;;;19.51;63.02;102218.16;6280705;22;20012;-89
2023/09/25 11:24:13;;;;;;;;;;;;;;;19.62;63.73;102221.75;6283180;22;20012;-86
2023/09/25 11:26:42;;;;;;;4.18;2.05;;;;;;;19.67;61.71;102214.22;6280519;22;20333;-87
2023/09/25 11:29:11;;;;;;;2.28;2.15;;;;;;;19.63;60.73;102217.84;6278811;22;20362;-87
2023/09/25 11:31:39;;;;;;;2.33;1.88;;;;;;;19.56;61.45;102212.84;6280278;22;20047;-88
2023/09/25 11:34:25;;;;;;;2.15;2.05;;;;;;;19.63;61.35;102222.50;6280915;22;20012;-87